Hovedside
METAR-TAF:

METAR-TAF

Lufthavner :

Casablanca, Marokko

breddegrad: 33-34N, lengdegrad: 007-40W, høyde over havet: 62 m

Gjeldene værobservasjon

Denne rapporten ble laget for 1 time og 4 minutter siden, klokken 09:00 UTC
Vind 4 kt fra Sør-sørvest
Temperatur 14°C
Luftfuktighet 88%
Trykk 1020 hPa
Sikt: 6000 m
Spredte skyer i en høyde av 1600 ft
Brutte skyer i en høyde av 2600 ft

METAR: GMMC 260900Z 20004KT 6000 SCT016 BKN026 14/12 Q1020

Tid: 11:04 (10:04 UTC)


TAF: fraværende

Værobservasjoner og værvarsel for over 4000 flyplasser (METAR- og TAF-rapporter).

Tilgjengelige stasjoner er representert av de røde og gule prikkene på kartet.

Hold musepekeren over prikken for å se navnet på stasjonen.

Klikk så for å se værobservasjoner og -varsler.

For å forandre kartet kan du klikke på den grønne knappen med svart kryss for å zoome inn, på den grønne knappen med strek for å zoome ut, eller på de grønne pilene for å se tilstøtende kart.


METAR-TAF: